sensor_id;sensor_type;location;lat;lon;timestamp;P1;durP1;ratioP1;P2;durP2;ratioP2
77191;SDS011;66172;48.526;8.078;2023-04-15T00:01:33;3.83;;;0.60;;
77191;SDS011;66172;48.526;8.078;2023-04-15T00:04:01;4.68;;;0.52;;
77191;SDS011;66172;48.526;8.078;2023-04-15T00:06:27;4.13;;;0.60;;
77191;SDS011;66172;48.526;8.078;2023-04-15T00:08:53;4.78;;;0.70;;
77191;SDS011;66172;48.526;8.078;2023-04-15T00:11:20;4.27;;;0.90;;
77191;SDS011;66172;48.526;8.078;2023-04-15T00:13:45;4.45;;;0.70;;
77191;SDS011;66172;48.526;8.078;2023-04-15T00:16:11;6.13;;;1.00;;
77191;SDS011;66172;48.526;8.078;2023-04-15T00:18:37;4.70;;;0.70;;
77191;SDS011;66172;48.526;8.078;2023-04-15T00:21:03;3.97;;;0.70;;
77191;SDS011;66172;48.526;8.078;2023-04-15T00:23:30;4.38;;;0.82;;
77191;SDS011;66172;48.526;8.078;2023-04-15T00:25:56;6.18;;;0.90;;
77191;SDS011;66172;48.526;8.078;2023-04-15T00:28:22;4.07;;;0.60;;
77191;SDS011;66172;48.526;8.078;2023-04-15T00:30:48;5.03;;;0.82;;
77191;SDS011;66172;48.526;8.078;2023-04-15T00:33:14;5.40;;;0.80;;
77191;SDS011;66172;48.526;8.078;2023-04-15T00:35:43;5.82;;;0.70;;
77191;SDS011;66172;48.526;8.078;2023-04-15T00:38:09;5.15;;;0.77;;
77191;SDS011;66172;48.526;8.078;2023-04-15T00:40:36;5.83;;;0.67;;
77191;SDS011;66172;48.526;8.078;2023-04-15T00:43:02;6.38;;;0.80;;
77191;SDS011;66172;48.526;8.078;2023-04-15T00:45:28;6.35;;;0.90;;
77191;SDS011;66172;48.526;8.078;2023-04-15T00:47:54;4.28;;;0.73;;
77191;SDS011;66172;48.526;8.078;2023-04-15T00:50:21;3.63;;;0.70;;
77191;SDS011;66172;48.526;8.078;2023-04-15T00:52:47;3.47;;;0.60;;
77191;SDS011;66172;48.526;8.078;2023-04-15T00:55:13;4.03;;;0.60;;
77191;SDS011;66172;48.526;8.078;2023-04-15T00:57:39;4.05;;;0.77;;
77191;SDS011;66172;48.526;8.078;2023-04-15T01:00:06;3.15;;;0.50;;
77191;SDS011;66172;48.526;8.078;2023-04-15T01:02:36;4.03;;;0.75;;
77191;SDS011;66172;48.526;8.078;2023-04-15T01:05:02;3.80;;;0.60;;
77191;SDS011;66172;48.526;8.078;2023-04-15T01:07:29;4.90;;;0.90;;
77191;SDS011;66172;48.526;8.078;2023-04-15T01:09:55;4.35;;;0.75;;
77191;SDS011;66172;48.526;8.078;2023-04-15T01:12:22;4.47;;;1.27;;
77191;SDS011;66172;48.526;8.078;2023-04-15T01:14:50;3.90;;;0.93;;
77191;SDS011;66172;48.526;8.078;2023-04-15T01:17:17;6.43;;;1.27;;
77191;SDS011;66172;48.526;8.078;2023-04-15T01:19:44;4.35;;;0.60;;
77191;SDS011;66172;48.526;8.078;2023-04-15T01:22:10;3.08;;;0.50;;
77191;SDS011;66172;48.526;8.078;2023-04-15T01:24:36;3.85;;;0.73;;
77191;SDS011;66172;48.526;8.078;2023-04-15T01:27:02;3.93;;;0.60;;
77191;SDS011;66172;48.526;8.078;2023-04-15T01:29:30;10.90;;;1.15;;
77191;SDS011;66172;48.526;8.078;2023-04-15T01:31:57;5.07;;;1.10;;
77191;SDS011;66172;48.526;8.078;2023-04-15T01:34:23;4.07;;;0.63;;
77191;SDS011;66172;48.526;8.078;2023-04-15T01:36:49;5.23;;;0.67;;
77191;SDS011;66172;48.526;8.078;2023-04-15T01:39:15;4.53;;;0.70;;
77191;SDS011;66172;48.526;8.078;2023-04-15T01:41:41;5.18;;;0.73;;
77191;SDS011;66172;48.526;8.078;2023-04-15T01:44:07;3.40;;;0.50;;
77191;SDS011;66172;48.526;8.078;2023-04-15T01:46:35;4.05;;;0.60;;
77191;SDS011;66172;48.526;8.078;2023-04-15T01:49:01;4.83;;;0.57;;
77191;SDS011;66172;48.526;8.078;2023-04-15T01:51:27;5.28;;;0.60;;
77191;SDS011;66172;48.526;8.078;2023-04-15T01:53:53;4.53;;;0.60;;
77191;SDS011;66172;48.526;8.078;2023-04-15T01:56:21;4.95;;;0.70;;
77191;SDS011;66172;48.526;8.078;2023-04-15T01:58:48;3.70;;;0.70;;
77191;SDS011;66172;48.526;8.078;2023-04-15T02:01:14;4.97;;;0.63;;
77191;SDS011;66172;48.526;8.078;2023-04-15T02:03:41;4.80;;;0.75;;
77191;SDS011;66172;48.526;8.078;2023-04-15T02:06:07;4.68;;;0.90;;
77191;SDS011;66172;48.526;8.078;2023-04-15T02:08:33;4.50;;;0.60;;
77191;SDS011;66172;48.526;8.078;2023-04-15T02:10:59;4.07;;;0.60;;
77191;SDS011;66172;48.526;8.078;2023-04-15T02:13:25;7.80;;;0.90;;
77191;SDS011;66172;48.526;8.078;2023-04-15T02:15:53;4.85;;;0.73;;
77191;SDS011;66172;48.526;8.078;2023-04-15T02:18:20;5.60;;;0.80;;
77191;SDS011;66172;48.526;8.078;2023-04-15T02:20:46;5.18;;;1.05;;
77191;SDS011;66172;48.526;8.078;2023-04-15T02:23:12;6.07;;;0.80;;
77191;SDS011;66172;48.526;8.078;2023-04-15T02:25:38;6.82;;;0.77;;
77191;SDS011;66172;48.526;8.078;2023-04-15T02:28:04;4.53;;;0.70;;
77191;SDS011;66172;48.526;8.078;2023-04-15T02:30:31;4.23;;;0.70;;
77191;SDS011;66172;48.526;8.078;2023-04-15T02:32:58;4.55;;;0.75;;
77191;SDS011;66172;48.526;8.078;2023-04-15T02:35:25;6.15;;;0.88;;
77191;SDS011;66172;48.526;8.078;2023-04-15T02:37:51;4.07;;;0.88;;
77191;SDS011;66172;48.526;8.078;2023-04-15T02:40:17;4.20;;;0.60;;
77191;SDS011;66172;48.526;8.078;2023-04-15T02:42:43;4.40;;;0.80;;
77191;SDS011;66172;48.526;8.078;2023-04-15T02:45:09;4.65;;;1.00;;
77191;SDS011;66172;48.526;8.078;2023-04-15T02:47:36;8.48;;;0.90;;
77191;SDS011;66172;48.526;8.078;2023-04-15T02:50:06;4.80;;;0.60;;
77191;SDS011;66172;48.526;8.078;2023-04-15T02:52:34;5.80;;;1.50;;
77191;SDS011;66172;48.526;8.078;2023-04-15T02:55:00;4.28;;;0.50;;
77191;SDS011;66172;48.526;8.078;2023-04-15T02:57:27;7.00;;;0.80;;
77191;SDS011;66172;48.526;8.078;2023-04-15T02:59:54;10.07;;;0.90;;
77191;SDS011;66172;48.526;8.078;2023-04-15T03:02:19;3.13;;;0.60;;
77191;SDS011;66172;48.526;8.078;2023-04-15T03:04:45;5.75;;;0.80;;
77191;SDS011;66172;48.526;8.078;2023-04-15T03:07:11;6.50;;;1.00;;
77191;SDS011;66172;48.526;8.078;2023-04-15T03:09:37;4.70;;;0.80;;
77191;SDS011;66172;48.526;8.078;2023-04-15T03:12:05;6.63;;;0.70;;
77191;SDS011;66172;48.526;8.078;2023-04-15T03:14:31;3.75;;;0.80;;
77191;SDS011;66172;48.526;8.078;2023-04-15T03:16:57;3.47;;;0.60;;
77191;SDS011;66172;48.526;8.078;2023-04-15T03:19:24;3.95;;;0.60;;
77191;SDS011;66172;48.526;8.078;2023-04-15T03:21:50;6.03;;;0.97;;
77191;SDS011;66172;48.526;8.078;2023-04-15T03:24:16;5.85;;;0.55;;
77191;SDS011;66172;48.526;8.078;2023-04-15T03:26:42;7.13;;;0.85;;
77191;SDS011;66172;48.526;8.078;2023-04-15T03:29:08;5.68;;;0.88;;
77191;SDS011;66172;48.526;8.078;2023-04-15T03:31:34;6.43;;;0.60;;
77191;SDS011;66172;48.526;8.078;2023-04-15T03:34:01;4.50;;;0.75;;
77191;SDS011;66172;48.526;8.078;2023-04-15T03:36:28;8.73;;;0.77;;
77191;SDS011;66172;48.526;8.078;2023-04-15T03:38:56;7.53;;;1.08;;
77191;SDS011;66172;48.526;8.078;2023-04-15T03:41:22;6.40;;;0.80;;
77191;SDS011;66172;48.526;8.078;2023-04-15T03:43:48;4.68;;;0.70;;
77191;SDS011;66172;48.526;8.078;2023-04-15T03:46:17;5.38;;;0.85;;
77191;SDS011;66172;48.526;8.078;2023-04-15T03:48:43;6.70;;;0.95;;
77191;SDS011;66172;48.526;8.078;2023-04-15T03:51:09;6.70;;;0.98;;
77191;SDS011;66172;48.526;8.078;2023-04-15T03:53:35;5.83;;;1.30;;
77191;SDS011;66172;48.526;8.078;2023-04-15T03:56:00;4.65;;;0.80;;
77191;SDS011;66172;48.526;8.078;2023-04-15T03:58:26;5.03;;;0.60;;
77191;SDS011;66172;48.526;8.078;2023-04-15T04:00:52;5.90;;;0.70;;
77191;SDS011;66172;48.526;8.078;2023-04-15T04:03:19;6.43;;;1.30;;
77191;SDS011;66172;48.526;8.078;2023-04-15T04:05:45;4.45;;;0.90;;
77191;SDS011;66172;48.526;8.078;2023-04-15T04:08:11;6.50;;;1.40;;
77191;SDS011;66172;48.526;8.078;2023-04-15T04:10:41;6.00;;;1.63;;
77191;SDS011;66172;48.526;8.078;2023-04-15T04:13:07;5.53;;;1.60;;
77191;SDS011;66172;48.526;8.078;2023-04-15T04:15:33;8.23;;;1.20;;
77191;SDS011;66172;48.526;8.078;2023-04-15T04:17:59;6.30;;;0.80;;
77191;SDS011;66172;48.526;8.078;2023-04-15T04:20:25;5.47;;;1.02;;
77191;SDS011;66172;48.526;8.078;2023-04-15T04:22:51;4.87;;;0.80;;
77191;SDS011;66172;48.526;8.078;2023-04-15T04:25:17;5.05;;;0.90;;
77191;SDS011;66172;48.526;8.078;2023-04-15T04:27:42;4.53;;;1.02;;
77191;SDS011;66172;48.526;8.078;2023-04-15T04:30:10;5.40;;;1.60;;
77191;SDS011;66172;48.526;8.078;2023-04-15T04:32:36;7.33;;;1.30;;
77191;SDS011;66172;48.526;8.078;2023-04-15T04:35:02;5.50;;;1.40;;
77191;SDS011;66172;48.526;8.078;2023-04-15T04:37:29;5.05;;;0.90;;
77191;SDS011;66172;48.526;8.078;2023-04-15T04:39:55;5.55;;;0.93;;
77191;SDS011;66172;48.526;8.078;2023-04-15T04:42:21;3.40;;;0.60;;
77191;SDS011;66172;48.526;8.078;2023-04-15T04:44:47;4.18;;;0.70;;
77191;SDS011;66172;48.526;8.078;2023-04-15T04:47:13;6.72;;;0.93;;
77191;SDS011;66172;48.526;8.078;2023-04-15T04:49:39;6.20;;;1.30;;
77191;SDS011;66172;48.526;8.078;2023-04-15T04:52:05;10.07;;;2.00;;
77191;SDS011;66172;48.526;8.078;2023-04-15T04:54:31;5.07;;;1.30;;
77191;SDS011;66172;48.526;8.078;2023-04-15T04:56:57;6.90;;;2.25;;
77191;SDS011;66172;48.526;8.078;2023-04-15T04:59:23;7.35;;;2.90;;
77191;SDS011;66172;48.526;8.078;2023-04-15T05:01:49;6.57;;;2.13;;
77191;SDS011;66172;48.526;8.078;2023-04-15T05:04:15;9.77;;;1.75;;
77191;SDS011;66172;48.526;8.078;2023-04-15T05:06:41;6.20;;;1.83;;
77191;SDS011;66172;48.526;8.078;2023-04-15T05:09:07;8.45;;;2.03;;
77191;SDS011;66172;48.526;8.078;2023-04-15T05:11:33;9.40;;;2.10;;
77191;SDS011;66172;48.526;8.078;2023-04-15T05:13:59;10.77;;;2.30;;
77191;SDS011;66172;48.526;8.078;2023-04-15T05:16:26;10.45;;;1.98;;
77191;SDS011;66172;48.526;8.078;2023-04-15T05:18:52;10.25;;;2.00;;
77191;SDS011;66172;48.526;8.078;2023-04-15T05:21:18;6.23;;;1.10;;
77191;SDS011;66172;48.526;8.078;2023-04-15T05:23:45;7.28;;;1.40;;
77191;SDS011;66172;48.526;8.078;2023-04-15T05:26:11;6.28;;;1.50;;
77191;SDS011;66172;48.526;8.078;2023-04-15T05:28:37;7.32;;;1.50;;
77191;SDS011;66172;48.526;8.078;2023-04-15T05:31:03;6.87;;;1.93;;
77191;SDS011;66172;48.526;8.078;2023-04-15T05:33:29;6.50;;;1.43;;
77191;SDS011;66172;48.526;8.078;2023-04-15T05:35:55;4.85;;;1.30;;
77191;SDS011;66172;48.526;8.078;2023-04-15T05:38:21;5.43;;;1.17;;
77191;SDS011;66172;48.526;8.078;2023-04-15T05:40:46;7.63;;;1.73;;
77191;SDS011;66172;48.526;8.078;2023-04-15T05:43:12;6.68;;;1.33;;
77191;SDS011;66172;48.526;8.078;2023-04-15T05:45:38;5.15;;;1.10;;
77191;SDS011;66172;48.526;8.078;2023-04-15T05:48:04;7.75;;;1.50;;
77191;SDS011;66172;48.526;8.078;2023-04-15T05:50:30;4.17;;;1.00;;
77191;SDS011;66172;48.526;8.078;2023-04-15T05:52:56;4.88;;;1.27;;
77191;SDS011;66172;48.526;8.078;2023-04-15T05:55:22;5.00;;;1.33;;
77191;SDS011;66172;48.526;8.078;2023-04-15T05:57:48;7.83;;;1.00;;
77191;SDS011;66172;48.526;8.078;2023-04-15T06:00:14;5.20;;;0.90;;
77191;SDS011;66172;48.526;8.078;2023-04-15T06:02:40;5.72;;;1.08;;
77191;SDS011;66172;48.526;8.078;2023-04-15T06:05:07;7.07;;;1.00;;
77191;SDS011;66172;48.526;8.078;2023-04-15T06:07:36;4.43;;;1.02;;
77191;SDS011;66172;48.526;8.078;2023-04-15T06:10:03;6.43;;;1.07;;
77191;SDS011;66172;48.526;8.078;2023-04-15T06:12:30;5.85;;;1.48;;
77191;SDS011;66172;48.526;8.078;2023-04-15T06:14:56;5.00;;;1.10;;
77191;SDS011;66172;48.526;8.078;2023-04-15T06:17:22;7.15;;;1.27;;
77191;SDS011;66172;48.526;8.078;2023-04-15T06:19:48;4.07;;;1.07;;
77191;SDS011;66172;48.526;8.078;2023-04-15T06:22:16;7.88;;;1.88;;
77191;SDS011;66172;48.526;8.078;2023-04-15T06:24:42;6.07;;;1.58;;
77191;SDS011;66172;48.526;8.078;2023-04-15T06:27:08;9.95;;;2.25;;
77191;SDS011;66172;48.526;8.078;2023-04-15T06:29:33;6.30;;;1.33;;
77191;SDS011;66172;48.526;8.078;2023-04-15T06:32:00;4.70;;;1.20;;
77191;SDS011;66172;48.526;8.078;2023-04-15T06:34:26;6.63;;;1.50;;
77191;SDS011;66172;48.526;8.078;2023-04-15T06:36:51;4.70;;;1.50;;
77191;SDS011;66172;48.526;8.078;2023-04-15T06:39:19;9.93;;;1.90;;
77191;SDS011;66172;48.526;8.078;2023-04-15T06:41:45;11.82;;;1.40;;
77191;SDS011;66172;48.526;8.078;2023-04-15T06:44:11;5.43;;;1.40;;
77191;SDS011;66172;48.526;8.078;2023-04-15T06:46:37;5.70;;;1.55;;
77191;SDS011;66172;48.526;8.078;2023-04-15T06:49:03;6.97;;;2.37;;
77191;SDS011;66172;48.526;8.078;2023-04-15T06:51:29;9.55;;;2.70;;
77191;SDS011;66172;48.526;8.078;2023-04-15T06:53:55;8.60;;;2.10;;
77191;SDS011;66172;48.526;8.078;2023-04-15T06:56:22;6.18;;;1.33;;
77191;SDS011;66172;48.526;8.078;2023-04-15T06:58:48;5.13;;;1.30;;
77191;SDS011;66172;48.526;8.078;2023-04-15T07:01:13;6.53;;;1.70;;
77191;SDS011;66172;48.526;8.078;2023-04-15T07:03:39;6.07;;;1.45;;
77191;SDS011;66172;48.526;8.078;2023-04-15T07:06:06;5.15;;;1.10;;
77191;SDS011;66172;48.526;8.078;2023-04-15T07:08:33;7.30;;;2.50;;
77191;SDS011;66172;48.526;8.078;2023-04-15T07:10:59;6.60;;;2.17;;
77191;SDS011;66172;48.526;8.078;2023-04-15T07:13:26;7.53;;;2.85;;
77191;SDS011;66172;48.526;8.078;2023-04-15T07:15:52;7.65;;;3.20;;
77191;SDS011;66172;48.526;8.078;2023-04-15T07:18:18;8.73;;;3.08;;
77191;SDS011;66172;48.526;8.078;2023-04-15T07:20:44;7.57;;;2.93;;
77191;SDS011;66172;48.526;8.078;2023-04-15T07:23:09;8.38;;;3.33;;
77191;SDS011;66172;48.526;8.078;2023-04-15T07:25:35;8.63;;;3.45;;
77191;SDS011;66172;48.526;8.078;2023-04-15T07:28:01;7.40;;;2.40;;
77191;SDS011;66172;48.526;8.078;2023-04-15T07:30:27;7.35;;;2.22;;
77191;SDS011;66172;48.526;8.078;2023-04-15T07:32:54;8.13;;;2.22;;
77191;SDS011;66172;48.526;8.078;2023-04-15T07:35:19;7.43;;;1.95;;
77191;SDS011;66172;48.526;8.078;2023-04-15T07:37:46;7.30;;;2.25;;
77191;SDS011;66172;48.526;8.078;2023-04-15T07:40:12;6.70;;;2.60;;
77191;SDS011;66172;48.526;8.078;2023-04-15T07:42:40;5.57;;;2.28;;
77191;SDS011;66172;48.526;8.078;2023-04-15T07:45:06;7.40;;;2.20;;
77191;SDS011;66172;48.526;8.078;2023-04-15T07:47:33;5.88;;;2.28;;
77191;SDS011;66172;48.526;8.078;2023-04-15T07:49:59;6.53;;;2.60;;
77191;SDS011;66172;48.526;8.078;2023-04-15T07:52:26;7.60;;;2.75;;
77191;SDS011;66172;48.526;8.078;2023-04-15T07:54:52;7.85;;;2.95;;
77191;SDS011;66172;48.526;8.078;2023-04-15T07:57:18;7.43;;;2.67;;
77191;SDS011;66172;48.526;8.078;2023-04-15T07:59:44;6.43;;;3.00;;
77191;SDS011;66172;48.526;8.078;2023-04-15T08:02:10;8.03;;;3.30;;
77191;SDS011;66172;48.526;8.078;2023-04-15T08:04:36;8.63;;;3.80;;
77191;SDS011;66172;48.526;8.078;2023-04-15T08:07:02;10.35;;;3.28;;
77191;SDS011;66172;48.526;8.078;2023-04-15T08:09:29;8.73;;;3.45;;
77191;SDS011;66172;48.526;8.078;2023-04-15T08:11:55;7.63;;;3.77;;
77191;SDS011;66172;48.526;8.078;2023-04-15T08:14:21;8.82;;;3.60;;
77191;SDS011;66172;48.526;8.078;2023-04-15T08:16:47;8.15;;;3.30;;
77191;SDS011;66172;48.526;8.078;2023-04-15T08:19:13;5.90;;;2.50;;
77191;SDS011;66172;48.526;8.078;2023-04-15T08:21:39;7.68;;;2.88;;
77191;SDS011;66172;48.526;8.078;2023-04-15T08:24:05;8.25;;;3.25;;
77191;SDS011;66172;48.526;8.078;2023-04-15T08:26:31;7.60;;;3.30;;
77191;SDS011;66172;48.526;8.078;2023-04-15T08:28:57;7.90;;;3.30;;
77191;SDS011;66172;48.526;8.078;2023-04-15T08:31:25;7.03;;;2.88;;
77191;SDS011;66172;48.526;8.078;2023-04-15T08:33:51;7.65;;;2.75;;
77191;SDS011;66172;48.526;8.078;2023-04-15T08:36:19;8.63;;;3.58;;
77191;SDS011;66172;48.526;8.078;2023-04-15T08:38:44;8.32;;;3.17;;
77191;SDS011;66172;48.526;8.078;2023-04-15T08:41:11;8.17;;;3.00;;
77191;SDS011;66172;48.526;8.078;2023-04-15T08:43:45;7.57;;;2.70;;
77191;SDS011;66172;48.526;8.078;2023-04-15T08:46:17;6.03;;;2.10;;
77191;SDS011;66172;48.526;8.078;2023-04-15T08:48:43;4.53;;;1.40;;
77191;SDS011;66172;48.526;8.078;2023-04-15T08:51:13;6.10;;;1.70;;
77191;SDS011;66172;48.526;8.078;2023-04-15T08:53:42;5.03;;;1.75;;
77191;SDS011;66172;48.526;8.078;2023-04-15T08:56:08;5.15;;;1.75;;
77191;SDS011;66172;48.526;8.078;2023-04-15T08:58:37;6.85;;;1.83;;
77191;SDS011;66172;48.526;8.078;2023-04-15T09:01:03;6.18;;;1.85;;
77191;SDS011;66172;48.526;8.078;2023-04-15T09:03:29;5.80;;;2.10;;
77191;SDS011;66172;48.526;8.078;2023-04-15T09:05:55;5.13;;;1.80;;
77191;SDS011;66172;48.526;8.078;2023-04-15T09:08:21;6.03;;;2.10;;
77191;SDS011;66172;48.526;8.078;2023-04-15T09:10:47;5.57;;;1.80;;
77191;SDS011;66172;48.526;8.078;2023-04-15T09:13:13;5.30;;;1.87;;
77191;SDS011;66172;48.526;8.078;2023-04-15T09:15:39;7.03;;;1.70;;
77191;SDS011;66172;48.526;8.078;2023-04-15T09:18:05;5.95;;;1.90;;
77191;SDS011;66172;48.526;8.078;2023-04-15T09:20:40;5.30;;;1.92;;
77191;SDS011;66172;48.526;8.078;2023-04-15T09:23:12;7.93;;;2.10;;
77191;SDS011;66172;48.526;8.078;2023-04-15T09:25:40;7.45;;;2.15;;
77191;SDS011;66172;48.526;8.078;2023-04-15T09:28:09;4.68;;;1.70;;
77191;SDS011;66172;48.526;8.078;2023-04-15T09:30:35;7.47;;;1.90;;
77191;SDS011;66172;48.526;8.078;2023-04-15T09:33:02;6.15;;;1.98;;
77191;SDS011;66172;48.526;8.078;2023-04-15T09:35:33;8.40;;;2.27;;
77191;SDS011;66172;48.526;8.078;2023-04-15T09:38:06;5.40;;;1.90;;
77191;SDS011;66172;48.526;8.078;2023-04-15T09:40:38;5.47;;;1.60;;
77191;SDS011;66172;48.526;8.078;2023-04-15T09:43:06;6.22;;;2.00;;
77191;SDS011;66172;48.526;8.078;2023-04-15T09:45:33;7.78;;;2.10;;
77191;SDS011;66172;48.526;8.078;2023-04-15T09:48:15;5.50;;;1.80;;
77191;SDS011;66172;48.526;8.078;2023-04-15T09:50:46;5.93;;;1.80;;
77191;SDS011;66172;48.526;8.078;2023-04-15T09:53:22;5.28;;;1.83;;
77191;SDS011;66172;48.526;8.078;2023-04-15T09:55:49;5.00;;;1.80;;
77191;SDS011;66172;48.526;8.078;2023-04-15T09:58:20;5.05;;;1.60;;
77191;SDS011;66172;48.526;8.078;2023-04-15T10:00:48;4.70;;;1.77;;
77191;SDS011;66172;48.526;8.078;2023-04-15T10:03:36;5.60;;;1.92;;
77191;SDS011;66172;48.526;8.078;2023-04-15T10:06:01;5.10;;;1.80;;
77191;SDS011;66172;48.526;8.078;2023-04-15T10:08:31;5.78;;;2.00;;
77191;SDS011;66172;48.526;8.078;2023-04-15T10:11:00;7.38;;;1.70;;
77191;SDS011;66172;48.526;8.078;2023-04-15T10:13:28;5.27;;;1.70;;
77191;SDS011;66172;48.526;8.078;2023-04-15T10:16:04;5.57;;;1.90;;
77191;SDS011;66172;48.526;8.078;2023-04-15T10:18:34;6.03;;;2.08;;
77191;SDS011;66172;48.526;8.078;2023-04-15T10:21:02;6.10;;;2.10;;
77191;SDS011;66172;48.526;8.078;2023-04-15T10:23:30;6.43;;;1.85;;
77191;SDS011;66172;48.526;8.078;2023-04-15T10:25:57;5.67;;;1.90;;
77191;SDS011;66172;48.526;8.078;2023-04-15T10:28:24;6.03;;;1.90;;
77191;SDS011;66172;48.526;8.078;2023-04-15T10:30:51;4.22;;;1.65;;
77191;SDS011;66172;48.526;8.078;2023-04-15T10:33:21;5.15;;;1.75;;
77191;SDS011;66172;48.526;8.078;2023-04-15T10:35:49;7.72;;;1.67;;
77191;SDS011;66172;48.526;8.078;2023-04-15T10:41:15;6.65;;;1.70;;
77191;SDS011;66172;48.526;8.078;2023-04-15T10:43:52;5.78;;;1.90;;
77191;SDS011;66172;48.526;8.078;2023-04-15T10:46:23;5.25;;;2.00;;
77191;SDS011;66172;48.526;8.078;2023-04-15T10:49:06;6.93;;;2.20;;
77191;SDS011;66172;48.526;8.078;2023-04-15T10:51:36;5.40;;;1.90;;
77191;SDS011;66172;48.526;8.078;2023-04-15T10:54:12;6.40;;;2.20;;
77191;SDS011;66172;48.526;8.078;2023-04-15T11:04:50;5.57;;;2.20;;
77191;SDS011;66172;48.526;8.078;2023-04-15T11:10:01;6.82;;;3.05;;
77191;SDS011;66172;48.526;8.078;2023-04-15T11:12:34;7.13;;;2.28;;
77191;SDS011;66172;48.526;8.078;2023-04-15T11:17:57;6.70;;;1.87;;
77191;SDS011;66172;48.526;8.078;2023-04-15T11:20:33;6.72;;;1.73;;
77191;SDS011;66172;48.526;8.078;2023-04-15T11:22:59;6.57;;;2.20;;
77191;SDS011;66172;48.526;8.078;2023-04-15T11:25:27;6.38;;;1.90;;
77191;SDS011;66172;48.526;8.078;2023-04-15T11:27:54;6.47;;;1.70;;
77191;SDS011;66172;48.526;8.078;2023-04-15T11:30:22;6.47;;;1.50;;
77191;SDS011;66172;48.526;8.078;2023-04-15T11:32:50;6.28;;;1.63;;
77191;SDS011;66172;48.526;8.078;2023-04-15T11:35:17;5.85;;;1.77;;
77191;SDS011;66172;48.526;8.078;2023-04-15T11:37:44;7.03;;;1.50;;
77191;SDS011;66172;48.526;8.078;2023-04-15T11:40:10;5.40;;;1.95;;
77191;SDS011;66172;48.526;8.078;2023-04-15T11:42:37;6.27;;;2.00;;
77191;SDS011;66172;48.526;8.078;2023-04-15T11:47:32;5.43;;;1.10;;
77191;SDS011;66172;48.526;8.078;2023-04-15T11:50:12;4.68;;;1.20;;
77191;SDS011;66172;48.526;8.078;2023-04-15T11:52:57;6.30;;;1.42;;
77191;SDS011;66172;48.526;8.078;2023-04-15T11:55:24;5.73;;;1.77;;
77191;SDS011;66172;48.526;8.078;2023-04-15T11:58:07;4.95;;;1.50;;
77191;SDS011;66172;48.526;8.078;2023-04-15T12:00:34;5.85;;;1.50;;
77191;SDS011;66172;48.526;8.078;2023-04-15T12:11:21;4.97;;;1.20;;
77191;SDS011;66172;48.526;8.078;2023-04-15T12:13:54;6.10;;;1.23;;
77191;SDS011;66172;48.526;8.078;2023-04-15T12:16:22;6.53;;;1.20;;
77191;SDS011;66172;48.526;8.078;2023-04-15T12:18:51;8.40;;;1.20;;
77191;SDS011;66172;48.526;8.078;2023-04-15T12:21:21;6.30;;;1.20;;
77191;SDS011;66172;48.526;8.078;2023-04-15T12:23:49;8.00;;;1.55;;
77191;SDS011;66172;48.526;8.078;2023-04-15T12:26:25;4.47;;;1.10;;
77191;SDS011;66172;48.526;8.078;2023-04-15T12:28:54;4.72;;;1.20;;
77191;SDS011;66172;48.526;8.078;2023-04-15T12:31:27;5.57;;;1.00;;
77191;SDS011;66172;48.526;8.078;2023-04-15T12:33:56;6.07;;;1.13;;
77191;SDS011;66172;48.526;8.078;2023-04-15T12:36:23;5.70;;;1.10;;
77191;SDS011;66172;48.526;8.078;2023-04-15T12:38:49;5.70;;;1.20;;
77191;SDS011;66172;48.526;8.078;2023-04-15T12:41:15;4.10;;;1.00;;
77191;SDS011;66172;48.526;8.078;2023-04-15T12:43:43;5.57;;;1.10;;
77191;SDS011;66172;48.526;8.078;2023-04-15T12:46:10;4.80;;;0.93;;
77191;SDS011;66172;48.526;8.078;2023-04-15T12:48:36;4.93;;;0.90;;
77191;SDS011;66172;48.526;8.078;2023-04-15T12:51:02;4.43;;;1.20;;
77191;SDS011;66172;48.526;8.078;2023-04-15T12:53:28;4.78;;;1.00;;
77191;SDS011;66172;48.526;8.078;2023-04-15T12:55:53;3.95;;;1.00;;
77191;SDS011;66172;48.526;8.078;2023-04-15T12:58:20;4.30;;;1.00;;
77191;SDS011;66172;48.526;8.078;2023-04-15T13:00:46;4.87;;;1.10;;
77191;SDS011;66172;48.526;8.078;2023-04-15T13:03:11;4.82;;;1.10;;
77191;SDS011;66172;48.526;8.078;2023-04-15T13:05:37;5.05;;;1.13;;
77191;SDS011;66172;48.526;8.078;2023-04-15T13:08:04;4.78;;;1.20;;
77191;SDS011;66172;48.526;8.078;2023-04-15T13:10:31;5.27;;;1.30;;
77191;SDS011;66172;48.526;8.078;2023-04-15T13:12:57;6.30;;;1.25;;
77191;SDS011;66172;48.526;8.078;2023-04-15T13:15:23;4.93;;;1.00;;
77191;SDS011;66172;48.526;8.078;2023-04-15T13:17:50;6.07;;;1.38;;
77191;SDS011;66172;48.526;8.078;2023-04-15T13:20:16;5.10;;;1.40;;
77191;SDS011;66172;48.526;8.078;2023-04-15T13:22:42;6.70;;;1.50;;
77191;SDS011;66172;48.526;8.078;2023-04-15T13:25:08;5.93;;;1.38;;
77191;SDS011;66172;48.526;8.078;2023-04-15T13:27:34;6.82;;;1.55;;
77191;SDS011;66172;48.526;8.078;2023-04-15T13:30:00;5.57;;;1.58;;
77191;SDS011;66172;48.526;8.078;2023-04-15T13:32:26;8.43;;;3.07;;
77191;SDS011;66172;48.526;8.078;2023-04-15T13:34:52;5.85;;;1.85;;
77191;SDS011;66172;48.526;8.078;2023-04-15T13:37:19;8.10;;;2.03;;
77191;SDS011;66172;48.526;8.078;2023-04-15T13:39:45;5.53;;;1.65;;
77191;SDS011;66172;48.526;8.078;2023-04-15T13:42:11;5.73;;;1.40;;
77191;SDS011;66172;48.526;8.078;2023-04-15T13:44:37;5.90;;;1.70;;
77191;SDS011;66172;48.526;8.078;2023-04-15T13:47:03;6.78;;;1.50;;
77191;SDS011;66172;48.526;8.078;2023-04-15T13:49:28;6.97;;;1.67;;
77191;SDS011;66172;48.526;8.078;2023-04-15T13:51:54;6.22;;;1.60;;
77191;SDS011;66172;48.526;8.078;2023-04-15T13:54:20;6.22;;;1.52;;
77191;SDS011;66172;48.526;8.078;2023-04-15T13:56:46;7.10;;;1.67;;
77191;SDS011;66172;48.526;8.078;2023-04-15T13:59:12;6.80;;;1.47;;
77191;SDS011;66172;48.526;8.078;2023-04-15T14:01:38;6.57;;;1.73;;
77191;SDS011;66172;48.526;8.078;2023-04-15T14:04:05;11.35;;;1.60;;
77191;SDS011;66172;48.526;8.078;2023-04-15T14:06:31;5.57;;;1.90;;
77191;SDS011;66172;48.526;8.078;2023-04-15T14:08:57;7.93;;;1.73;;
77191;SDS011;66172;48.526;8.078;2023-04-15T14:11:23;6.20;;;1.55;;
77191;SDS011;66172;48.526;8.078;2023-04-15T14:13:49;8.02;;;2.20;;
77191;SDS011;66172;48.526;8.078;2023-04-15T14:16:15;7.87;;;2.03;;
77191;SDS011;66172;48.526;8.078;2023-04-15T14:18:41;7.38;;;2.38;;
77191;SDS011;66172;48.526;8.078;2023-04-15T14:21:08;6.68;;;2.13;;
77191;SDS011;66172;48.526;8.078;2023-04-15T14:23:34;7.65;;;2.10;;
77191;SDS011;66172;48.526;8.078;2023-04-15T14:26:00;4.97;;;1.73;;
77191;SDS011;66172;48.526;8.078;2023-04-15T14:28:26;7.65;;;1.90;;
77191;SDS011;66172;48.526;8.078;2023-04-15T14:30:52;6.50;;;2.10;;
77191;SDS011;66172;48.526;8.078;2023-04-15T14:33:18;8.33;;;2.10;;
77191;SDS011;66172;48.526;8.078;2023-04-15T14:35:44;7.22;;;1.90;;
77191;SDS011;66172;48.526;8.078;2023-04-15T14:38:10;6.57;;;2.30;;
77191;SDS011;66172;48.526;8.078;2023-04-15T14:40:36;8.13;;;2.40;;
77191;SDS011;66172;48.526;8.078;2023-04-15T14:43:02;7.57;;;1.67;;
77191;SDS011;66172;48.526;8.078;2023-04-15T14:45:28;8.05;;;1.95;;
77191;SDS011;66172;48.526;8.078;2023-04-15T14:47:55;7.30;;;2.05;;
77191;SDS011;66172;48.526;8.078;2023-04-15T14:50:21;8.55;;;2.10;;
77191;SDS011;66172;48.526;8.078;2023-04-15T14:52:47;6.07;;;1.70;;
77191;SDS011;66172;48.526;8.078;2023-04-15T14:55:13;7.13;;;2.08;;
77191;SDS011;66172;48.526;8.078;2023-04-15T14:57:39;6.38;;;1.80;;
77191;SDS011;66172;48.526;8.078;2023-04-15T15:00:07;7.20;;;1.70;;
77191;SDS011;66172;48.526;8.078;2023-04-15T15:02:35;8.35;;;1.85;;
77191;SDS011;66172;48.526;8.078;2023-04-15T15:05:01;5.57;;;1.50;;
77191;SDS011;66172;48.526;8.078;2023-04-15T15:07:27;7.05;;;1.95;;
77191;SDS011;66172;48.526;8.078;2023-04-15T15:09:54;8.85;;;1.70;;
77191;SDS011;66172;48.526;8.078;2023-04-15T15:12:20;7.40;;;2.03;;
77191;SDS011;66172;48.526;8.078;2023-04-15T15:14:49;7.03;;;2.47;;